sensor_id;sensor_type;location;lat;lon;timestamp;P1;durP1;ratioP1;P2;durP2;ratioP2
4313;SDS011;2170;48.794;9.182;2022-08-19T00:01:18;19.37;;;17.57;;
4313;SDS011;2170;48.794;9.182;2022-08-19T00:03:45;18.43;;;16.83;;
4313;SDS011;2170;48.794;9.182;2022-08-19T00:06:12;18.20;;;16.63;;
4313;SDS011;2170;48.794;9.182;2022-08-19T00:08:39;19.03;;;17.30;;
4313;SDS011;2170;48.794;9.182;2022-08-19T00:11:06;18.17;;;16.43;;
4313;SDS011;2170;48.794;9.182;2022-08-19T00:13:33;18.40;;;16.90;;
4313;SDS011;2170;48.794;9.182;2022-08-19T00:16:02;18.47;;;16.70;;
4313;SDS011;2170;48.794;9.182;2022-08-19T00:18:30;18.87;;;17.27;;
4313;SDS011;2170;48.794;9.182;2022-08-19T00:20:57;18.70;;;16.97;;
4313;SDS011;2170;48.794;9.182;2022-08-19T00:23:25;18.67;;;16.97;;
4313;SDS011;2170;48.794;9.182;2022-08-19T00:25:52;18.50;;;16.87;;
4313;SDS011;2170;48.794;9.182;2022-08-19T00:28:19;18.93;;;17.23;;
4313;SDS011;2170;48.794;9.182;2022-08-19T00:30:46;18.60;;;17.00;;
4313;SDS011;2170;48.794;9.182;2022-08-19T00:33:15;18.10;;;16.60;;
4313;SDS011;2170;48.794;9.182;2022-08-19T00:35:42;18.80;;;17.10;;
4313;SDS011;2170;48.794;9.182;2022-08-19T00:38:09;19.50;;;17.70;;
4313;SDS011;2170;48.794;9.182;2022-08-19T00:40:36;18.20;;;16.50;;
4313;SDS011;2170;48.794;9.182;2022-08-19T00:43:07;19.53;;;17.83;;
4313;SDS011;2170;48.794;9.182;2022-08-19T00:45:34;18.07;;;16.43;;
4313;SDS011;2170;48.794;9.182;2022-08-19T00:48:01;18.47;;;16.63;;
4313;SDS011;2170;48.794;9.182;2022-08-19T00:50:30;17.77;;;16.17;;
4313;SDS011;2170;48.794;9.182;2022-08-19T00:52:58;17.73;;;16.23;;
4313;SDS011;2170;48.794;9.182;2022-08-19T00:55:26;19.97;;;16.80;;
4313;SDS011;2170;48.794;9.182;2022-08-19T00:57:55;19.10;;;17.20;;
4313;SDS011;2170;48.794;9.182;2022-08-19T01:00:24;18.10;;;16.60;;
4313;SDS011;2170;48.794;9.182;2022-08-19T01:02:51;18.17;;;16.50;;
4313;SDS011;2170;48.794;9.182;2022-08-19T01:05:19;18.50;;;16.93;;
4313;SDS011;2170;48.794;9.182;2022-08-19T01:07:49;17.57;;;15.90;;
4313;SDS011;2170;48.794;9.182;2022-08-19T01:10:17;18.43;;;16.77;;
4313;SDS011;2170;48.794;9.182;2022-08-19T01:12:45;17.70;;;16.20;;
4313;SDS011;2170;48.794;9.182;2022-08-19T01:15:14;18.20;;;16.50;;
4313;SDS011;2170;48.794;9.182;2022-08-19T01:17:42;19.37;;;17.47;;
4313;SDS011;2170;48.794;9.182;2022-08-19T01:20:10;18.00;;;16.40;;
4313;SDS011;2170;48.794;9.182;2022-08-19T01:22:39;18.93;;;17.23;;
4313;SDS011;2170;48.794;9.182;2022-08-19T01:25:09;18.70;;;16.90;;
4313;SDS011;2170;48.794;9.182;2022-08-19T01:27:37;19.80;;;17.67;;
4313;SDS011;2170;48.794;9.182;2022-08-19T01:30:05;20.47;;;18.60;;
4313;SDS011;2170;48.794;9.182;2022-08-19T01:32:32;19.30;;;17.50;;
4313;SDS011;2170;48.794;9.182;2022-08-19T01:35:00;20.27;;;17.63;;
4313;SDS011;2170;48.794;9.182;2022-08-19T01:37:27;18.17;;;16.47;;
4313;SDS011;2170;48.794;9.182;2022-08-19T01:39:56;20.40;;;18.63;;
4313;SDS011;2170;48.794;9.182;2022-08-19T01:42:23;19.73;;;17.93;;
4313;SDS011;2170;48.794;9.182;2022-08-19T01:44:50;19.53;;;17.63;;
4313;SDS011;2170;48.794;9.182;2022-08-19T01:47:17;19.37;;;17.67;;
4313;SDS011;2170;48.794;9.182;2022-08-19T01:49:44;18.60;;;16.93;;
4313;SDS011;2170;48.794;9.182;2022-08-19T01:52:11;19.50;;;17.70;;
4313;SDS011;2170;48.794;9.182;2022-08-19T01:54:38;20.60;;;18.70;;
4313;SDS011;2170;48.794;9.182;2022-08-19T01:57:09;20.20;;;18.17;;
4313;SDS011;2170;48.794;9.182;2022-08-19T01:59:37;19.60;;;17.60;;
4313;SDS011;2170;48.794;9.182;2022-08-19T02:02:04;20.70;;;18.60;;
4313;SDS011;2170;48.794;9.182;2022-08-19T02:04:32;19.50;;;17.80;;
4313;SDS011;2170;48.794;9.182;2022-08-19T02:06:59;20.70;;;18.73;;
4313;SDS011;2170;48.794;9.182;2022-08-19T02:09:26;20.47;;;18.53;;
4313;SDS011;2170;48.794;9.182;2022-08-19T02:11:53;21.87;;;19.80;;
4313;SDS011;2170;48.794;9.182;2022-08-19T02:14:21;20.93;;;19.07;;
4313;SDS011;2170;48.794;9.182;2022-08-19T02:16:48;20.77;;;18.80;;
4313;SDS011;2170;48.794;9.182;2022-08-19T02:19:16;22.10;;;19.80;;
4313;SDS011;2170;48.794;9.182;2022-08-19T02:21:43;21.93;;;20.00;;
4313;SDS011;2170;48.794;9.182;2022-08-19T02:24:10;23.03;;;20.73;;
4313;SDS011;2170;48.794;9.182;2022-08-19T02:26:37;22.60;;;20.40;;
4313;SDS011;2170;48.794;9.182;2022-08-19T02:29:04;20.90;;;19.10;;
4313;SDS011;2170;48.794;9.182;2022-08-19T02:31:33;20.47;;;18.60;;
4313;SDS011;2170;48.794;9.182;2022-08-19T02:34:00;21.83;;;19.70;;
4313;SDS011;2170;48.794;9.182;2022-08-19T02:36:27;22.90;;;20.80;;
4313;SDS011;2170;48.794;9.182;2022-08-19T02:38:55;22.40;;;20.30;;
4313;SDS011;2170;48.794;9.182;2022-08-19T02:41:22;22.93;;;20.73;;
4313;SDS011;2170;48.794;9.182;2022-08-19T02:43:49;24.00;;;21.80;;
4313;SDS011;2170;48.794;9.182;2022-08-19T02:46:17;21.90;;;19.90;;
4313;SDS011;2170;48.794;9.182;2022-08-19T02:48:47;25.17;;;22.77;;
4313;SDS011;2170;48.794;9.182;2022-08-19T02:51:17;24.00;;;21.60;;
4313;SDS011;2170;48.794;9.182;2022-08-19T02:53:45;23.47;;;21.17;;
4313;SDS011;2170;48.794;9.182;2022-08-19T02:56:12;24.10;;;21.90;;
4313;SDS011;2170;48.794;9.182;2022-08-19T02:58:39;24.90;;;22.50;;
4313;SDS011;2170;48.794;9.182;2022-08-19T03:01:06;24.73;;;22.23;;
4313;SDS011;2170;48.794;9.182;2022-08-19T03:03:33;26.13;;;23.63;;
4313;SDS011;2170;48.794;9.182;2022-08-19T03:06:06;25.37;;;22.87;;
4313;SDS011;2170;48.794;9.182;2022-08-19T03:08:33;25.90;;;23.37;;
4313;SDS011;2170;48.794;9.182;2022-08-19T03:11:01;26.27;;;23.63;;
4313;SDS011;2170;48.794;9.182;2022-08-19T03:13:28;25.33;;;23.00;;
4313;SDS011;2170;48.794;9.182;2022-08-19T03:15:55;26.67;;;24.10;;
4313;SDS011;2170;48.794;9.182;2022-08-19T03:18:22;24.83;;;22.20;;
4313;SDS011;2170;48.794;9.182;2022-08-19T03:20:50;26.83;;;23.33;;
4313;SDS011;2170;48.794;9.182;2022-08-19T03:23:20;27.33;;;24.73;;
4313;SDS011;2170;48.794;9.182;2022-08-19T03:25:48;26.50;;;23.90;;
4313;SDS011;2170;48.794;9.182;2022-08-19T03:28:16;26.47;;;23.87;;
4313;SDS011;2170;48.794;9.182;2022-08-19T03:30:54;27.47;;;25.00;;
4313;SDS011;2170;48.794;9.182;2022-08-19T03:33:22;27.30;;;24.50;;
4313;SDS011;2170;48.794;9.182;2022-08-19T03:35:58;26.97;;;24.37;;
4313;SDS011;2170;48.794;9.182;2022-08-19T03:38:27;27.53;;;24.93;;
4313;SDS011;2170;48.794;9.182;2022-08-19T03:40:54;27.47;;;24.80;;
4313;SDS011;2170;48.794;9.182;2022-08-19T03:43:21;28.00;;;25.23;;
4313;SDS011;2170;48.794;9.182;2022-08-19T03:45:48;27.10;;;24.47;;
4313;SDS011;2170;48.794;9.182;2022-08-19T03:48:16;29.97;;;27.07;;
4313;SDS011;2170;48.794;9.182;2022-08-19T03:50:43;27.47;;;24.80;;
4313;SDS011;2170;48.794;9.182;2022-08-19T03:53:10;29.03;;;26.23;;
4313;SDS011;2170;48.794;9.182;2022-08-19T03:55:40;28.43;;;25.73;;
4313;SDS011;2170;48.794;9.182;2022-08-19T03:58:07;28.50;;;25.90;;
4313;SDS011;2170;48.794;9.182;2022-08-19T04:00:37;28.83;;;26.13;;
4313;SDS011;2170;48.794;9.182;2022-08-19T04:03:04;28.00;;;25.30;;
4313;SDS011;2170;48.794;9.182;2022-08-19T04:05:31;29.47;;;26.60;;
4313;SDS011;2170;48.794;9.182;2022-08-19T04:07:58;30.20;;;27.23;;
4313;SDS011;2170;48.794;9.182;2022-08-19T04:10:25;28.30;;;25.53;;
4313;SDS011;2170;48.794;9.182;2022-08-19T04:12:55;29.47;;;26.60;;
4313;SDS011;2170;48.794;9.182;2022-08-19T04:15:22;30.47;;;27.60;;
4313;SDS011;2170;48.794;9.182;2022-08-19T04:17:49;27.90;;;25.30;;
4313;SDS011;2170;48.794;9.182;2022-08-19T04:20:16;30.70;;;27.80;;
4313;SDS011;2170;48.794;9.182;2022-08-19T04:22:43;30.07;;;27.20;;
4313;SDS011;2170;48.794;9.182;2022-08-19T04:25:11;32.17;;;29.07;;
4313;SDS011;2170;48.794;9.182;2022-08-19T04:27:38;30.50;;;27.47;;
4313;SDS011;2170;48.794;9.182;2022-08-19T04:30:13;30.00;;;27.03;;
4313;SDS011;2170;48.794;9.182;2022-08-19T04:32:40;30.90;;;28.00;;
4313;SDS011;2170;48.794;9.182;2022-08-19T04:35:08;30.30;;;27.30;;
4313;SDS011;2170;48.794;9.182;2022-08-19T04:37:35;30.90;;;28.10;;
4313;SDS011;2170;48.794;9.182;2022-08-19T04:40:03;29.93;;;26.77;;
4313;SDS011;2170;48.794;9.182;2022-08-19T04:42:48;30.80;;;27.93;;
4313;SDS011;2170;48.794;9.182;2022-08-19T04:45:17;31.00;;;27.90;;
4313;SDS011;2170;48.794;9.182;2022-08-19T04:47:44;32.60;;;29.40;;
4313;SDS011;2170;48.794;9.182;2022-08-19T04:50:11;30.60;;;27.70;;
4313;SDS011;2170;48.794;9.182;2022-08-19T04:52:38;30.40;;;27.40;;
4313;SDS011;2170;48.794;9.182;2022-08-19T04:55:07;32.03;;;28.93;;
4313;SDS011;2170;48.794;9.182;2022-08-19T04:57:35;30.27;;;27.47;;
4313;SDS011;2170;48.794;9.182;2022-08-19T05:00:05;30.90;;;28.00;;
4313;SDS011;2170;48.794;9.182;2022-08-19T05:02:34;30.30;;;27.57;;
4313;SDS011;2170;48.794;9.182;2022-08-19T05:05:01;29.60;;;26.70;;
4313;SDS011;2170;48.794;9.182;2022-08-19T05:07:30;29.90;;;27.10;;
4313;SDS011;2170;48.794;9.182;2022-08-19T05:09:57;30.07;;;27.03;;
4313;SDS011;2170;48.794;9.182;2022-08-19T05:12:25;30.37;;;27.47;;
4313;SDS011;2170;48.794;9.182;2022-08-19T05:14:52;30.87;;;27.97;;
4313;SDS011;2170;48.794;9.182;2022-08-19T05:17:20;31.20;;;28.33;;
4313;SDS011;2170;48.794;9.182;2022-08-19T05:19:49;31.13;;;28.17;;
4313;SDS011;2170;48.794;9.182;2022-08-19T05:22:33;30.53;;;27.63;;
4313;SDS011;2170;48.794;9.182;2022-08-19T05:25:02;30.77;;;27.70;;
4313;SDS011;2170;48.794;9.182;2022-08-19T05:27:30;31.80;;;28.67;;
4313;SDS011;2170;48.794;9.182;2022-08-19T05:29:57;31.40;;;28.40;;
4313;SDS011;2170;48.794;9.182;2022-08-19T05:32:24;30.53;;;27.73;;
4313;SDS011;2170;48.794;9.182;2022-08-19T05:34:52;30.30;;;27.40;;
4313;SDS011;2170;48.794;9.182;2022-08-19T05:37:19;30.57;;;27.27;;
4313;SDS011;2170;48.794;9.182;2022-08-19T05:39:47;32.30;;;29.23;;
4313;SDS011;2170;48.794;9.182;2022-08-19T05:42:14;30.63;;;27.93;;
4313;SDS011;2170;48.794;9.182;2022-08-19T05:44:43;33.13;;;29.53;;
4313;SDS011;2170;48.794;9.182;2022-08-19T05:47:10;30.57;;;27.67;;
4313;SDS011;2170;48.794;9.182;2022-08-19T05:49:38;30.47;;;27.77;;
4313;SDS011;2170;48.794;9.182;2022-08-19T05:52:07;29.33;;;26.63;;
4313;SDS011;2170;48.794;9.182;2022-08-19T05:54:38;29.97;;;27.17;;
4313;SDS011;2170;48.794;9.182;2022-08-19T05:57:06;30.50;;;27.70;;
4313;SDS011;2170;48.794;9.182;2022-08-19T05:59:34;30.20;;;27.50;;
4313;SDS011;2170;48.794;9.182;2022-08-19T06:02:01;31.10;;;28.10;;
4313;SDS011;2170;48.794;9.182;2022-08-19T06:04:28;29.47;;;26.67;;
4313;SDS011;2170;48.794;9.182;2022-08-19T06:06:55;29.93;;;27.20;;
4313;SDS011;2170;48.794;9.182;2022-08-19T06:09:24;31.13;;;28.37;;
4313;SDS011;2170;48.794;9.182;2022-08-19T06:11:52;30.73;;;27.90;;
4313;SDS011;2170;48.794;9.182;2022-08-19T06:14:21;29.73;;;26.93;;
4313;SDS011;2170;48.794;9.182;2022-08-19T06:16:49;29.33;;;26.57;;
4313;SDS011;2170;48.794;9.182;2022-08-19T06:19:17;30.80;;;27.80;;
4313;SDS011;2170;48.794;9.182;2022-08-19T06:21:45;29.30;;;26.60;;
4313;SDS011;2170;48.794;9.182;2022-08-19T06:24:13;30.37;;;27.43;;
4313;SDS011;2170;48.794;9.182;2022-08-19T06:26:44;28.60;;;25.90;;
4313;SDS011;2170;48.794;9.182;2022-08-19T06:29:12;29.33;;;26.23;;
4313;SDS011;2170;48.794;9.182;2022-08-19T06:31:41;29.90;;;26.97;;
4313;SDS011;2170;48.794;9.182;2022-08-19T06:34:08;30.73;;;27.63;;
4313;SDS011;2170;48.794;9.182;2022-08-19T06:36:36;29.37;;;26.50;;
4313;SDS011;2170;48.794;9.182;2022-08-19T06:39:06;30.77;;;27.77;;
4313;SDS011;2170;48.794;9.182;2022-08-19T06:41:34;30.20;;;27.50;;
4313;SDS011;2170;48.794;9.182;2022-08-19T06:44:03;30.20;;;27.40;;
4313;SDS011;2170;48.794;9.182;2022-08-19T06:46:30;31.10;;;28.23;;
4313;SDS011;2170;48.794;9.182;2022-08-19T06:48:57;32.30;;;29.27;;
4313;SDS011;2170;48.794;9.182;2022-08-19T06:51:25;32.37;;;29.40;;
4313;SDS011;2170;48.794;9.182;2022-08-19T06:53:53;32.37;;;29.33;;
4313;SDS011;2170;48.794;9.182;2022-08-19T06:56:21;31.80;;;28.70;;
4313;SDS011;2170;48.794;9.182;2022-08-19T06:58:49;32.20;;;29.10;;
4313;SDS011;2170;48.794;9.182;2022-08-19T07:01:18;32.10;;;29.30;;
4313;SDS011;2170;48.794;9.182;2022-08-19T07:03:46;31.93;;;28.97;;
4313;SDS011;2170;48.794;9.182;2022-08-19T07:06:14;29.50;;;26.60;;
4313;SDS011;2170;48.794;9.182;2022-08-19T07:08:43;33.07;;;29.87;;
4313;SDS011;2170;48.794;9.182;2022-08-19T07:11:10;31.60;;;28.50;;
4313;SDS011;2170;48.794;9.182;2022-08-19T07:13:39;32.20;;;29.00;;
4313;SDS011;2170;48.794;9.182;2022-08-19T07:16:09;30.73;;;27.63;;
4313;SDS011;2170;48.794;9.182;2022-08-19T07:18:38;30.03;;;27.10;;
4313;SDS011;2170;48.794;9.182;2022-08-19T07:21:05;28.90;;;26.30;;
4313;SDS011;2170;48.794;9.182;2022-08-19T07:23:33;31.20;;;28.13;;
4313;SDS011;2170;48.794;9.182;2022-08-19T07:26:03;32.17;;;28.87;;
4313;SDS011;2170;48.794;9.182;2022-08-19T07:28:30;30.07;;;27.17;;
4313;SDS011;2170;48.794;9.182;2022-08-19T07:30:58;29.87;;;26.97;;
4313;SDS011;2170;48.794;9.182;2022-08-19T07:33:26;30.10;;;27.27;;
4313;SDS011;2170;48.794;9.182;2022-08-19T07:35:58;30.10;;;27.20;;
4313;SDS011;2170;48.794;9.182;2022-08-19T07:38:25;29.17;;;26.27;;
4313;SDS011;2170;48.794;9.182;2022-08-19T07:40:53;28.93;;;26.20;;
4313;SDS011;2170;48.794;9.182;2022-08-19T07:43:20;29.07;;;26.30;;
4313;SDS011;2170;48.794;9.182;2022-08-19T07:45:50;26.90;;;24.50;;
4313;SDS011;2170;48.794;9.182;2022-08-19T07:48:17;27.80;;;25.20;;
4313;SDS011;2170;48.794;9.182;2022-08-19T07:50:50;29.50;;;26.60;;
4313;SDS011;2170;48.794;9.182;2022-08-19T07:53:19;28.87;;;26.23;;
4313;SDS011;2170;48.794;9.182;2022-08-19T07:55:46;28.07;;;25.37;;
4313;SDS011;2170;48.794;9.182;2022-08-19T07:58:14;27.80;;;25.23;;
4313;SDS011;2170;48.794;9.182;2022-08-19T08:00:41;28.07;;;25.57;;
4313;SDS011;2170;48.794;9.182;2022-08-19T08:03:09;28.97;;;26.20;;
4313;SDS011;2170;48.794;9.182;2022-08-19T08:05:36;27.70;;;25.00;;
4313;SDS011;2170;48.794;9.182;2022-08-19T08:08:22;27.47;;;24.87;;
4313;SDS011;2170;48.794;9.182;2022-08-19T08:11:07;26.13;;;23.73;;
4313;SDS011;2170;48.794;9.182;2022-08-19T08:13:35;27.00;;;24.50;;
4313;SDS011;2170;48.794;9.182;2022-08-19T08:16:02;27.67;;;25.03;;
4313;SDS011;2170;48.794;9.182;2022-08-19T08:18:30;27.77;;;24.97;;
4313;SDS011;2170;48.794;9.182;2022-08-19T08:20:58;27.13;;;24.63;;
4313;SDS011;2170;48.794;9.182;2022-08-19T08:23:26;28.30;;;25.60;;
4313;SDS011;2170;48.794;9.182;2022-08-19T08:25:55;26.77;;;24.47;;
4313;SDS011;2170;48.794;9.182;2022-08-19T08:28:23;26.87;;;24.37;;
4313;SDS011;2170;48.794;9.182;2022-08-19T08:30:50;27.73;;;25.07;;
4313;SDS011;2170;48.794;9.182;2022-08-19T08:33:17;26.63;;;24.20;;
4313;SDS011;2170;48.794;9.182;2022-08-19T08:35:45;27.00;;;24.60;;
4313;SDS011;2170;48.794;9.182;2022-08-19T08:38:12;26.83;;;24.43;;
4313;SDS011;2170;48.794;9.182;2022-08-19T08:40:44;26.83;;;24.33;;
4313;SDS011;2170;48.794;9.182;2022-08-19T08:43:18;27.53;;;24.83;;
4313;SDS011;2170;48.794;9.182;2022-08-19T08:45:49;26.97;;;24.47;;
4313;SDS011;2170;48.794;9.182;2022-08-19T08:48:19;26.47;;;23.97;;
4313;SDS011;2170;48.794;9.182;2022-08-19T08:50:47;27.60;;;24.80;;
4313;SDS011;2170;48.794;9.182;2022-08-19T08:53:18;27.20;;;24.73;;
4313;SDS011;2170;48.794;9.182;2022-08-19T08:55:47;28.07;;;25.50;;
4313;SDS011;2170;48.794;9.182;2022-08-19T08:58:14;26.67;;;24.10;;
4313;SDS011;2170;48.794;9.182;2022-08-19T09:00:45;27.77;;;25.10;;
4313;SDS011;2170;48.794;9.182;2022-08-19T09:03:19;26.57;;;24.17;;
4313;SDS011;2170;48.794;9.182;2022-08-19T09:05:49;26.63;;;24.07;;
4313;SDS011;2170;48.794;9.182;2022-08-19T09:08:21;26.63;;;24.13;;
4313;SDS011;2170;48.794;9.182;2022-08-19T09:10:52;25.90;;;23.50;;
4313;SDS011;2170;48.794;9.182;2022-08-19T09:13:21;25.40;;;23.07;;
4313;SDS011;2170;48.794;9.182;2022-08-19T09:15:52;26.87;;;24.37;;
4313;SDS011;2170;48.794;9.182;2022-08-19T09:18:20;26.00;;;23.40;;
4313;SDS011;2170;48.794;9.182;2022-08-19T09:20:47;26.03;;;23.43;;
4313;SDS011;2170;48.794;9.182;2022-08-19T09:23:14;24.37;;;22.17;;
4313;SDS011;2170;48.794;9.182;2022-08-19T09:25:41;26.07;;;23.93;;
4313;SDS011;2170;48.794;9.182;2022-08-19T09:28:09;24.70;;;22.27;;
4313;SDS011;2170;48.794;9.182;2022-08-19T09:30:38;25.13;;;23.03;;
4313;SDS011;2170;48.794;9.182;2022-08-19T09:33:06;24.50;;;22.30;;
4313;SDS011;2170;48.794;9.182;2022-08-19T09:35:33;23.50;;;21.27;;
4313;SDS011;2170;48.794;9.182;2022-08-19T09:38:01;23.50;;;21.30;;
4313;SDS011;2170;48.794;9.182;2022-08-19T09:40:28;23.50;;;21.13;;
4313;SDS011;2170;48.794;9.182;2022-08-19T09:42:55;22.10;;;19.83;;
4313;SDS011;2170;48.794;9.182;2022-08-19T09:45:28;22.17;;;19.97;;
4313;SDS011;2170;48.794;9.182;2022-08-19T09:47:56;24.23;;;21.43;;
4313;SDS011;2170;48.794;9.182;2022-08-19T09:50:23;22.63;;;20.40;;
4313;SDS011;2170;48.794;9.182;2022-08-19T09:52:51;22.00;;;20.07;;
4313;SDS011;2170;48.794;9.182;2022-08-19T09:55:21;21.80;;;19.60;;
4313;SDS011;2170;48.794;9.182;2022-08-19T09:57:48;20.60;;;18.73;;
4313;SDS011;2170;48.794;9.182;2022-08-19T10:00:15;20.47;;;18.87;;
4313;SDS011;2170;48.794;9.182;2022-08-19T10:02:44;22.17;;;20.00;;
4313;SDS011;2170;48.794;9.182;2022-08-19T10:05:11;18.80;;;17.20;;
4313;SDS011;2170;48.794;9.182;2022-08-19T10:07:55;20.00;;;18.20;;
4313;SDS011;2170;48.794;9.182;2022-08-19T10:10:25;20.63;;;18.67;;
4313;SDS011;2170;48.794;9.182;2022-08-19T10:12:52;19.23;;;17.60;;
4313;SDS011;2170;48.794;9.182;2022-08-19T10:15:20;19.80;;;18.10;;
4313;SDS011;2170;48.794;9.182;2022-08-19T10:17:48;19.63;;;17.80;;
4313;SDS011;2170;48.794;9.182;2022-08-19T10:20:15;18.70;;;16.93;;
4313;SDS011;2170;48.794;9.182;2022-08-19T10:22:42;19.97;;;18.03;;
4313;SDS011;2170;48.794;9.182;2022-08-19T10:25:10;19.10;;;17.53;;
4313;SDS011;2170;48.794;9.182;2022-08-19T10:27:37;19.13;;;17.23;;
4313;SDS011;2170;48.794;9.182;2022-08-19T10:30:05;19.23;;;17.50;;
4313;SDS011;2170;48.794;9.182;2022-08-19T10:32:32;20.37;;;18.17;;
4313;SDS011;2170;48.794;9.182;2022-08-19T10:35:00;17.80;;;16.23;;
4313;SDS011;2170;48.794;9.182;2022-08-19T10:37:27;17.53;;;15.90;;
4313;SDS011;2170;48.794;9.182;2022-08-19T10:39:55;18.17;;;16.43;;
4313;SDS011;2170;48.794;9.182;2022-08-19T10:42:22;17.87;;;16.27;;
4313;SDS011;2170;48.794;9.182;2022-08-19T10:44:49;17.33;;;15.93;;
4313;SDS011;2170;48.794;9.182;2022-08-19T10:47:16;16.97;;;15.57;;
4313;SDS011;2170;48.794;9.182;2022-08-19T10:49:43;17.97;;;16.17;;
4313;SDS011;2170;48.794;9.182;2022-08-19T10:52:29;16.37;;;14.97;;
4313;SDS011;2170;48.794;9.182;2022-08-19T10:54:59;16.17;;;14.77;;
4313;SDS011;2170;48.794;9.182;2022-08-19T10:57:44;15.17;;;13.87;;
4313;SDS011;2170;48.794;9.182;2022-08-19T11:00:11;15.50;;;14.27;;
4313;SDS011;2170;48.794;9.182;2022-08-19T11:02:39;15.23;;;13.70;;
4313;SDS011;2170;48.794;9.182;2022-08-19T11:05:07;14.10;;;12.90;;
4313;SDS011;2170;48.794;9.182;2022-08-19T11:07:37;14.57;;;13.20;;
4313;SDS011;2170;48.794;9.182;2022-08-19T11:10:04;14.63;;;13.43;;
4313;SDS011;2170;48.794;9.182;2022-08-19T11:12:31;15.00;;;13.80;;
4313;SDS011;2170;48.794;9.182;2022-08-19T11:14:59;15.00;;;13.60;;
4313;SDS011;2170;48.794;9.182;2022-08-19T11:17:26;14.60;;;13.23;;
4313;SDS011;2170;48.794;9.182;2022-08-19T11:19:55;14.20;;;13.00;;
4313;SDS011;2170;48.794;9.182;2022-08-19T11:22:22;13.03;;;11.93;;
4313;SDS011;2170;48.794;9.182;2022-08-19T11:24:51;13.13;;;12.07;;
4313;SDS011;2170;48.794;9.182;2022-08-19T11:27:18;13.40;;;12.40;;
4313;SDS011;2170;48.794;9.182;2022-08-19T11:29:45;12.10;;;10.87;;
4313;SDS011;2170;48.794;9.182;2022-08-19T11:32:12;15.43;;;11.77;;
4313;SDS011;2170;48.794;9.182;2022-08-19T11:34:40;12.60;;;11.40;;
4313;SDS011;2170;48.794;9.182;2022-08-19T11:37:07;12.93;;;11.50;;
4313;SDS011;2170;48.794;9.182;2022-08-19T11:39:34;12.30;;;11.40;;
4313;SDS011;2170;48.794;9.182;2022-08-19T11:42:04;12.27;;;11.17;;
4313;SDS011;2170;48.794;9.182;2022-08-19T11:44:52;11.40;;;10.07;;
4313;SDS011;2170;48.794;9.182;2022-08-19T11:47:19;14.80;;;10.93;;
4313;SDS011;2170;48.794;9.182;2022-08-19T11:49:46;11.43;;;10.53;;
4313;SDS011;2170;48.794;9.182;2022-08-19T11:52:14;12.30;;;11.20;;
4313;SDS011;2170;48.794;9.182;2022-08-19T11:54:41;12.57;;;11.57;;
4313;SDS011;2170;48.794;9.182;2022-08-19T11:57:09;12.00;;;11.00;;
4313;SDS011;2170;48.794;9.182;2022-08-19T11:59:36;12.03;;;11.10;;
4313;SDS011;2170;48.794;9.182;2022-08-19T12:02:03;11.80;;;10.90;;
4313;SDS011;2170;48.794;9.182;2022-08-19T12:04:30;11.97;;;11.00;;
4313;SDS011;2170;48.794;9.182;2022-08-19T12:06:57;12.63;;;11.53;;
4313;SDS011;2170;48.794;9.182;2022-08-19T12:09:24;12.17;;;11.10;;
4313;SDS011;2170;48.794;9.182;2022-08-19T12:11:51;12.23;;;11.23;;
4313;SDS011;2170;48.794;9.182;2022-08-19T12:14:20;12.80;;;11.60;;
4313;SDS011;2170;48.794;9.182;2022-08-19T12:16:48;11.80;;;10.80;;
4313;SDS011;2170;48.794;9.182;2022-08-19T12:19:15;11.70;;;10.57;;
4313;SDS011;2170;48.794;9.182;2022-08-19T12:21:42;11.50;;;10.47;;
4313;SDS011;2170;48.794;9.182;2022-08-19T12:24:09;11.90;;;10.93;;
4313;SDS011;2170;48.794;9.182;2022-08-19T12:26:36;21.23;;;19.40;;
4313;SDS011;2170;48.794;9.182;2022-08-19T12:29:03;19.37;;;17.67;;
4313;SDS011;2170;48.794;9.182;2022-08-19T12:31:31;18.80;;;16.90;;
4313;SDS011;2170;48.794;9.182;2022-08-19T12:33:59;19.60;;;17.70;;
4313;SDS011;2170;48.794;9.182;2022-08-19T12:36:27;18.63;;;17.00;;
4313;SDS011;2170;48.794;9.182;2022-08-19T12:38:54;18.87;;;17.07;;
4313;SDS011;2170;48.794;9.182;2022-08-19T12:41:21;19.73;;;17.87;;
4313;SDS011;2170;48.794;9.182;2022-08-19T12:43:48;20.53;;;18.73;;
4313;SDS011;2170;48.794;9.182;2022-08-19T12:46:16;21.60;;;19.70;;
4313;SDS011;2170;48.794;9.182;2022-08-19T12:48:45;20.57;;;18.53;;
4313;SDS011;2170;48.794;9.182;2022-08-19T12:51:12;17.43;;;16.03;;
4313;SDS011;2170;48.794;9.182;2022-08-19T12:53:40;17.40;;;15.90;;
4313;SDS011;2170;48.794;9.182;2022-08-19T12:56:07;19.67;;;16.30;;
4313;SDS011;2170;48.794;9.182;2022-08-19T12:58:34;18.63;;;16.83;;
4313;SDS011;2170;48.794;9.182;2022-08-19T13:01:05;17.70;;;15.77;;
4313;SDS011;2170;48.794;9.182;2022-08-19T13:03:33;17.70;;;16.10;;
4313;SDS011;2170;48.794;9.182;2022-08-19T13:06:01;17.67;;;16.17;;
4313;SDS011;2170;48.794;9.182;2022-08-19T13:08:28;19.30;;;16.57;;
4313;SDS011;2170;48.794;9.182;2022-08-19T13:10:55;16.80;;;15.20;;
4313;SDS011;2170;48.794;9.182;2022-08-19T13:13:23;20.37;;;17.47;;
4313;SDS011;2170;48.794;9.182;2022-08-19T13:15:51;17.73;;;16.23;;
4313;SDS011;2170;48.794;9.182;2022-08-19T13:18:18;18.67;;;17.07;;
4313;SDS011;2170;48.794;9.182;2022-08-19T13:20:45;20.83;;;18.73;;
4313;SDS011;2170;48.794;9.182;2022-08-19T13:23:13;20.57;;;18.60;;
4313;SDS011;2170;48.794;9.182;2022-08-19T13:25:40;19.53;;;17.73;;
4313;SDS011;2170;48.794;9.182;2022-08-19T13:28:07;20.47;;;18.77;;
4313;SDS011;2170;48.794;9.182;2022-08-19T13:30:34;24.20;;;22.10;;
4313;SDS011;2170;48.794;9.182;2022-08-19T13:33:19;24.87;;;22.73;;
4313;SDS011;2170;48.794;9.182;2022-08-19T13:35:47;23.73;;;21.53;;
4313;SDS011;2170;48.794;9.182;2022-08-19T13:38:20;22.97;;;20.70;;
4313;SDS011;2170;48.794;9.182;2022-08-19T13:40:47;23.00;;;20.70;;
4313;SDS011;2170;48.794;9.182;2022-08-19T13:43:16;23.80;;;21.70;;
4313;SDS011;2170;48.794;9.182;2022-08-19T13:45:44;25.17;;;22.97;;
4313;SDS011;2170;48.794;9.182;2022-08-19T13:48:11;25.50;;;23.30;;
4313;SDS011;2170;48.794;9.182;2022-08-19T13:50:40;25.63;;;23.27;;
4313;SDS011;2170;48.794;9.182;2022-08-19T13:53:07;25.90;;;23.50;;
4313;SDS011;2170;48.794;9.182;2022-08-19T13:55:36;30.23;;;27.23;;
4313;SDS011;2170;48.794;9.182;2022-08-19T13:58:03;29.17;;;26.40;;
4313;SDS011;2170;48.794;9.182;2022-08-19T14:00:32;32.20;;;28.97;;
4313;SDS011;2170;48.794;9.182;2022-08-19T14:02:59;28.90;;;26.03;;
4313;SDS011;2170;48.794;9.182;2022-08-19T14:05:27;29.27;;;26.47;;
4313;SDS011;2170;48.794;9.182;2022-08-19T14:07:54;30.53;;;27.83;;
4313;SDS011;2170;48.794;9.182;2022-08-19T14:10:21;30.13;;;27.33;;
4313;SDS011;2170;48.794;9.182;2022-08-19T14:12:51;28.27;;;25.87;;
4313;SDS011;2170;48.794;9.182;2022-08-19T14:15:20;28.67;;;26.10;;
4313;SDS011;2170;48.794;9.182;2022-08-19T14:17:47;30.20;;;27.43;;
4313;SDS011;2170;48.794;9.182;2022-08-19T14:20:15;28.17;;;25.67;;
4313;SDS011;2170;48.794;9.182;2022-08-19T14:22:42;32.90;;;29.87;;
4313;SDS011;2170;48.794;9.182;2022-08-19T14:25:10;28.77;;;26.20;;
4313;SDS011;2170;48.794;9.182;2022-08-19T14:27:39;27.30;;;24.90;;
4313;SDS011;2170;48.794;9.182;2022-08-19T14:30:08;27.17;;;24.90;;
4313;SDS011;2170;48.794;9.182;2022-08-19T14:32:36;27.37;;;24.87;;
4313;SDS011;2170;48.794;9.182;2022-08-19T14:35:03;27.97;;;25.57;;
4313;SDS011;2170;48.794;9.182;2022-08-19T14:37:32;30.07;;;27.17;;
4313;SDS011;2170;48.794;9.182;2022-08-19T14:39:59;29.50;;;26.80;;
4313;SDS011;2170;48.794;9.182;2022-08-19T14:42:26;28.40;;;25.90;;
4313;SDS011;2170;48.794;9.182;2022-08-19T14:44:56;26.73;;;24.43;;
4313;SDS011;2170;48.794;9.182;2022-08-19T14:47:25;27.70;;;25.13;;
4313;SDS011;2170;48.794;9.182;2022-08-19T14:49:52;25.97;;;23.47;;
4313;SDS011;2170;48.794;9.182;2022-08-19T14:52:19;26.70;;;24.40;;
4313;SDS011;2170;48.794;9.182;2022-08-19T14:54:46;26.13;;;23.83;;